Terminal Aerodrome Forecast
Issued by NWS Portland, OR

Home | Current Version | Previous Version | Text Only | Print | Product List | Glossary On
Versions: 1 2 3 4 5 6 7 8 9 10 11 12 13 14 15 16 17 18 19 20 21 22 23 24 25 26 27 28 29 30 31 32 33 34 35 36 37 38
571
FTUS46 KPQR 171725
TAFSLE
TAF
KSLE 171725Z 1718/1818 19012KT P6SM SCT025 OVC050
     FM171900 19013G20KT 6SM BR VCSH SCT015 BKN025 OVC040
     FM172100 24010KT 3SM RA BR BKN015 OVC025
     FM172200 29007KT 6SM BR VCSH SCT015 BKN025 OVC040
     FM172300 26005KT P6SM VCSH SCT025 BKN040
     FM180800 18003KT 2SM BR SCT004 BKN100
     FM181100 17007KT P6SM SCT015 BKN050 OVC100=

USA.gov is the U.S. government's official web portal to all federal, state and local government web resources and services.